sensor_id;sensor_type;location;lat;lon;timestamp;temperature;humidity
61912;DHT22;49973;52.084;5.412;2022-07-10T00:00:08;14.70;99.90
61912;DHT22;49973;52.084;5.412;2022-07-10T00:02:42;14.70;99.90
61912;DHT22;49973;52.084;5.412;2022-07-10T00:05:12;14.70;99.90
61912;DHT22;49973;52.084;5.412;2022-07-10T00:07:47;14.60;99.90
61912;DHT22;49973;52.084;5.412;2022-07-10T00:10:16;14.60;99.90
61912;DHT22;49973;52.084;5.412;2022-07-10T00:12:45;14.50;99.90
61912;DHT22;49973;52.084;5.412;2022-07-10T00:15:16;14.50;99.90
61912;DHT22;49973;52.084;5.412;2022-07-10T00:17:45;14.50;99.90
61912;DHT22;49973;52.084;5.412;2022-07-10T00:20:15;14.40;99.90
61912;DHT22;49973;52.084;5.412;2022-07-10T00:22:44;14.40;99.90
61912;DHT22;49973;52.084;5.412;2022-07-10T00:25:13;14.40;99.90
61912;DHT22;49973;52.084;5.412;2022-07-10T00:27:42;14.40;99.90
61912;DHT22;49973;52.084;5.412;2022-07-10T00:30:10;14.40;99.90
61912;DHT22;49973;52.084;5.412;2022-07-10T00:32:39;14.30;99.90
61912;DHT22;49973;52.084;5.412;2022-07-10T00:35:07;14.30;99.90
61912;DHT22;49973;52.084;5.412;2022-07-10T00:37:37;14.30;99.90
61912;DHT22;49973;52.084;5.412;2022-07-10T00:40:06;14.20;99.90
61912;DHT22;49973;52.084;5.412;2022-07-10T00:42:35;14.20;99.90
61912;DHT22;49973;52.084;5.412;2022-07-10T00:45:04;14.20;99.90
61912;DHT22;49973;52.084;5.412;2022-07-10T00:47:33;14.20;99.90
61912;DHT22;49973;52.084;5.412;2022-07-10T00:50:02;14.20;99.90
61912;DHT22;49973;52.084;5.412;2022-07-10T00:52:31;14.10;99.90
61912;DHT22;49973;52.084;5.412;2022-07-10T00:55:02;14.10;99.90
61912;DHT22;49973;52.084;5.412;2022-07-10T00:57:31;14.10;99.90
61912;DHT22;49973;52.084;5.412;2022-07-10T01:00:00;14.10;99.90
61912;DHT22;49973;52.084;5.412;2022-07-10T01:02:29;14.10;99.90
61912;DHT22;49973;52.084;5.412;2022-07-10T01:04:58;14.00;99.90
61912;DHT22;49973;52.084;5.412;2022-07-10T01:07:26;14.00;99.90
61912;DHT22;49973;52.084;5.412;2022-07-10T01:09:55;14.00;99.90
61912;DHT22;49973;52.084;5.412;2022-07-10T01:12:27;14.00;99.90
61912;DHT22;49973;52.084;5.412;2022-07-10T01:14:56;14.00;99.90
61912;DHT22;49973;52.084;5.412;2022-07-10T01:17:25;13.90;99.90
61912;DHT22;49973;52.084;5.412;2022-07-10T01:19:56;13.90;99.90
61912;DHT22;49973;52.084;5.412;2022-07-10T01:22:26;13.90;99.90
61912;DHT22;49973;52.084;5.412;2022-07-10T01:24:54;13.90;99.90
61912;DHT22;49973;52.084;5.412;2022-07-10T01:27:23;13.90;99.90
61912;DHT22;49973;52.084;5.412;2022-07-10T01:29:53;13.90;99.90
61912;DHT22;49973;52.084;5.412;2022-07-10T01:32:22;13.90;99.90
61912;DHT22;49973;52.084;5.412;2022-07-10T01:34:51;13.90;99.90
61912;DHT22;49973;52.084;5.412;2022-07-10T01:37:19;13.90;99.90
61912;DHT22;49973;52.084;5.412;2022-07-10T01:39:49;13.90;99.90
61912;DHT22;49973;52.084;5.412;2022-07-10T01:42:18;13.90;99.90
61912;DHT22;49973;52.084;5.412;2022-07-10T01:44:47;13.90;99.90
61912;DHT22;49973;52.084;5.412;2022-07-10T01:47:15;13.90;99.90
61912;DHT22;49973;52.084;5.412;2022-07-10T01:49:44;13.90;99.90
61912;DHT22;49973;52.084;5.412;2022-07-10T01:52:12;13.80;99.90
61912;DHT22;49973;52.084;5.412;2022-07-10T01:54:41;13.80;99.90
61912;DHT22;49973;52.084;5.412;2022-07-10T01:57:10;13.80;99.90
61912;DHT22;49973;52.084;5.412;2022-07-10T01:59:39;13.90;99.90
61912;DHT22;49973;52.084;5.412;2022-07-10T02:02:08;13.90;99.90
61912;DHT22;49973;52.084;5.412;2022-07-10T02:04:37;14.00;99.90
61912;DHT22;49973;52.084;5.412;2022-07-10T02:07:11;14.00;99.90
61912;DHT22;49973;52.084;5.412;2022-07-10T02:09:41;14.10;99.90
61912;DHT22;49973;52.084;5.412;2022-07-10T02:12:12;14.10;99.90
61912;DHT22;49973;52.084;5.412;2022-07-10T02:14:41;14.20;99.90
61912;DHT22;49973;52.084;5.412;2022-07-10T02:17:10;14.20;99.90
61912;DHT22;49973;52.084;5.412;2022-07-10T02:19:38;14.30;99.90
61912;DHT22;49973;52.084;5.412;2022-07-10T02:22:07;14.30;99.90
61912;DHT22;49973;52.084;5.412;2022-07-10T02:24:36;14.40;99.90
61912;DHT22;49973;52.084;5.412;2022-07-10T02:27:05;14.40;99.90
61912;DHT22;49973;52.084;5.412;2022-07-10T02:29:35;14.50;99.90
61912;DHT22;49973;52.084;5.412;2022-07-10T02:32:05;14.50;99.90
61912;DHT22;49973;52.084;5.412;2022-07-10T02:34:34;14.50;99.90
61912;DHT22;49973;52.084;5.412;2022-07-10T02:37:03;14.60;99.90
61912;DHT22;49973;52.084;5.412;2022-07-10T02:39:31;14.60;99.90
61912;DHT22;49973;52.084;5.412;2022-07-10T02:42:00;14.60;99.90
61912;DHT22;49973;52.084;5.412;2022-07-10T02:44:29;14.70;99.90
61912;DHT22;49973;52.084;5.412;2022-07-10T02:46:58;14.70;99.90
61912;DHT22;49973;52.084;5.412;2022-07-10T02:49:27;14.70;99.90
61912;DHT22;49973;52.084;5.412;2022-07-10T02:51:56;14.70;99.90
61912;DHT22;49973;52.084;5.412;2022-07-10T02:54:25;14.80;99.90
61912;DHT22;49973;52.084;5.412;2022-07-10T02:56:53;14.80;99.90
61912;DHT22;49973;52.084;5.412;2022-07-10T02:59:22;14.80;99.90
61912;DHT22;49973;52.084;5.412;2022-07-10T03:01:51;14.80;99.90
61912;DHT22;49973;52.084;5.412;2022-07-10T03:04:21;14.90;99.90
61912;DHT22;49973;52.084;5.412;2022-07-10T03:06:49;14.80;99.90
61912;DHT22;49973;52.084;5.412;2022-07-10T03:09:18;14.80;99.90
61912;DHT22;49973;52.084;5.412;2022-07-10T03:11:47;14.80;99.90
61912;DHT22;49973;52.084;5.412;2022-07-10T03:14:15;14.90;99.90
61912;DHT22;49973;52.084;5.412;2022-07-10T03:16:44;14.90;99.90
61912;DHT22;49973;52.084;5.412;2022-07-10T03:19:13;14.90;99.90
61912;DHT22;49973;52.084;5.412;2022-07-10T03:21:43;14.90;99.90
61912;DHT22;49973;52.084;5.412;2022-07-10T03:24:12;14.90;99.90
61912;DHT22;49973;52.084;5.412;2022-07-10T03:26:40;15.00;99.90
61912;DHT22;49973;52.084;5.412;2022-07-10T03:29:09;15.00;99.90
61912;DHT22;49973;52.084;5.412;2022-07-10T03:31:37;15.00;99.90
61912;DHT22;49973;52.084;5.412;2022-07-10T03:34:06;15.00;99.90
61912;DHT22;49973;52.084;5.412;2022-07-10T03:36:34;15.00;99.90
61912;DHT22;49973;52.084;5.412;2022-07-10T03:39:04;15.10;99.90
61912;DHT22;49973;52.084;5.412;2022-07-10T03:41:33;15.10;99.90
61912;DHT22;49973;52.084;5.412;2022-07-10T03:44:01;15.10;99.90
61912;DHT22;49973;52.084;5.412;2022-07-10T03:46:30;15.10;99.90
61912;DHT22;49973;52.084;5.412;2022-07-10T03:48:58;15.10;99.90
61912;DHT22;49973;52.084;5.412;2022-07-10T03:51:27;15.20;99.90
61912;DHT22;49973;52.084;5.412;2022-07-10T03:53:55;15.20;99.90
61912;DHT22;49973;52.084;5.412;2022-07-10T03:56:25;15.20;99.90
61912;DHT22;49973;52.084;5.412;2022-07-10T03:59:11;15.20;99.90
61912;DHT22;49973;52.084;5.412;2022-07-10T04:01:40;15.20;99.90
61912;DHT22;49973;52.084;5.412;2022-07-10T04:04:09;15.30;99.90
61912;DHT22;49973;52.084;5.412;2022-07-10T04:06:38;15.30;99.90
61912;DHT22;49973;52.084;5.412;2022-07-10T04:09:06;15.30;99.90
61912;DHT22;49973;52.084;5.412;2022-07-10T04:11:36;15.30;99.90
61912;DHT22;49973;52.084;5.412;2022-07-10T04:14:05;15.40;99.90
61912;DHT22;49973;52.084;5.412;2022-07-10T04:16:33;15.40;99.90
61912;DHT22;49973;52.084;5.412;2022-07-10T04:19:02;15.40;99.90
61912;DHT22;49973;52.084;5.412;2022-07-10T04:21:30;15.50;99.90
61912;DHT22;49973;52.084;5.412;2022-07-10T04:23:59;15.50;99.90
61912;DHT22;49973;52.084;5.412;2022-07-10T04:26:33;15.50;99.90
61912;DHT22;49973;52.084;5.412;2022-07-10T04:29:03;15.50;99.90
61912;DHT22;49973;52.084;5.412;2022-07-10T04:31:32;15.50;99.90
61912;DHT22;49973;52.084;5.412;2022-07-10T04:34:00;15.60;99.90
61912;DHT22;49973;52.084;5.412;2022-07-10T04:36:29;15.60;99.90
61912;DHT22;49973;52.084;5.412;2022-07-10T04:38:58;15.60;99.90
61912;DHT22;49973;52.084;5.412;2022-07-10T04:41:26;15.60;99.90
61912;DHT22;49973;52.084;5.412;2022-07-10T04:43:55;15.60;99.90
61912;DHT22;49973;52.084;5.412;2022-07-10T04:46:25;15.60;99.90
61912;DHT22;49973;52.084;5.412;2022-07-10T04:48:53;15.60;99.90
61912;DHT22;49973;52.084;5.412;2022-07-10T04:51:22;15.60;99.90
61912;DHT22;49973;52.084;5.412;2022-07-10T04:53:51;15.60;99.90
61912;DHT22;49973;52.084;5.412;2022-07-10T04:56:19;15.60;99.90
61912;DHT22;49973;52.084;5.412;2022-07-10T04:58:48;15.60;99.90
61912;DHT22;49973;52.084;5.412;2022-07-10T05:01:19;15.60;99.90
61912;DHT22;49973;52.084;5.412;2022-07-10T05:03:49;15.60;99.90
61912;DHT22;49973;52.084;5.412;2022-07-10T05:06:17;15.60;99.90
61912;DHT22;49973;52.084;5.412;2022-07-10T05:08:46;15.60;99.90
61912;DHT22;49973;52.084;5.412;2022-07-10T05:11:15;15.70;99.90
61912;DHT22;49973;52.084;5.412;2022-07-10T05:13:43;15.70;99.90
61912;DHT22;49973;52.084;5.412;2022-07-10T05:16:13;15.90;99.90
61912;DHT22;49973;52.084;5.412;2022-07-10T05:18:47;16.00;99.90
61912;DHT22;49973;52.084;5.412;2022-07-10T05:21:17;16.10;99.90
61912;DHT22;49973;52.084;5.412;2022-07-10T05:23:46;16.40;99.90
61912;DHT22;49973;52.084;5.412;2022-07-10T05:26:14;16.60;99.90
61912;DHT22;49973;52.084;5.412;2022-07-10T05:28:43;16.80;99.90
61912;DHT22;49973;52.084;5.412;2022-07-10T05:31:11;17.00;99.90
61912;DHT22;49973;52.084;5.412;2022-07-10T05:33:40;17.10;99.90
61912;DHT22;49973;52.084;5.412;2022-07-10T05:36:09;17.10;99.90
61912;DHT22;49973;52.084;5.412;2022-07-10T05:38:40;17.10;99.90
61912;DHT22;49973;52.084;5.412;2022-07-10T05:41:09;17.20;99.90
61912;DHT22;49973;52.084;5.412;2022-07-10T05:43:37;17.20;99.90
61912;DHT22;49973;52.084;5.412;2022-07-10T05:46:06;17.20;99.90
61912;DHT22;49973;52.084;5.412;2022-07-10T05:48:35;17.20;99.90
61912;DHT22;49973;52.084;5.412;2022-07-10T05:51:06;17.20;99.90
61912;DHT22;49973;52.084;5.412;2022-07-10T05:53:56;17.10;99.90
61912;DHT22;49973;52.084;5.412;2022-07-10T05:56:25;17.00;99.90
61912;DHT22;49973;52.084;5.412;2022-07-10T05:58:54;17.00;99.90
61912;DHT22;49973;52.084;5.412;2022-07-10T06:01:23;17.00;99.90
61912;DHT22;49973;52.084;5.412;2022-07-10T06:03:53;17.00;99.90
61912;DHT22;49973;52.084;5.412;2022-07-10T06:06:22;17.00;99.90
61912;DHT22;49973;52.084;5.412;2022-07-10T06:08:50;16.90;99.90
61912;DHT22;49973;52.084;5.412;2022-07-10T06:11:20;17.00;99.90
61912;DHT22;49973;52.084;5.412;2022-07-10T06:13:49;17.00;99.90
61912;DHT22;49973;52.084;5.412;2022-07-10T06:16:17;17.10;99.90
61912;DHT22;49973;52.084;5.412;2022-07-10T06:18:46;17.10;99.90
61912;DHT22;49973;52.084;5.412;2022-07-10T06:21:15;17.20;99.90
61912;DHT22;49973;52.084;5.412;2022-07-10T06:23:48;17.30;99.90
61912;DHT22;49973;52.084;5.412;2022-07-10T06:26:17;17.40;99.90
61912;DHT22;49973;52.084;5.412;2022-07-10T06:28:47;17.50;99.90
61912;DHT22;49973;52.084;5.412;2022-07-10T06:31:16;17.60;99.90
61912;DHT22;49973;52.084;5.412;2022-07-10T06:33:44;17.60;99.90
61912;DHT22;49973;52.084;5.412;2022-07-10T06:36:13;17.70;99.90
61912;DHT22;49973;52.084;5.412;2022-07-10T06:38:41;17.80;99.90
61912;DHT22;49973;52.084;5.412;2022-07-10T06:41:10;17.80;99.90
61912;DHT22;49973;52.084;5.412;2022-07-10T06:43:38;17.80;99.90
61912;DHT22;49973;52.084;5.412;2022-07-10T06:46:08;17.80;99.90
61912;DHT22;49973;52.084;5.412;2022-07-10T06:48:37;17.80;99.90
61912;DHT22;49973;52.084;5.412;2022-07-10T06:51:07;17.80;99.90
61912;DHT22;49973;52.084;5.412;2022-07-10T06:53:44;17.70;99.90
61912;DHT22;49973;52.084;5.412;2022-07-10T06:56:12;17.80;99.90
61912;DHT22;49973;52.084;5.412;2022-07-10T06:58:43;17.70;99.90
61912;DHT22;49973;52.084;5.412;2022-07-10T07:01:13;17.70;99.90
61912;DHT22;49973;52.084;5.412;2022-07-10T07:03:41;17.70;99.90
61912;DHT22;49973;52.084;5.412;2022-07-10T07:06:10;17.70;99.90
61912;DHT22;49973;52.084;5.412;2022-07-10T07:08:38;17.70;99.90
61912;DHT22;49973;52.084;5.412;2022-07-10T07:11:08;17.80;99.90
61912;DHT22;49973;52.084;5.412;2022-07-10T07:13:37;17.70;99.90
61912;DHT22;49973;52.084;5.412;2022-07-10T07:16:06;17.80;99.90
61912;DHT22;49973;52.084;5.412;2022-07-10T07:18:38;17.80;99.90
61912;DHT22;49973;52.084;5.412;2022-07-10T07:21:14;17.80;99.90
61912;DHT22;49973;52.084;5.412;2022-07-10T07:24:00;17.80;99.90
61912;DHT22;49973;52.084;5.412;2022-07-10T07:26:31;17.90;99.90
61912;DHT22;49973;52.084;5.412;2022-07-10T07:29:00;17.90;99.90
61912;DHT22;49973;52.084;5.412;2022-07-10T07:31:28;17.90;99.90
61912;DHT22;49973;52.084;5.412;2022-07-10T07:33:58;18.00;99.90
61912;DHT22;49973;52.084;5.412;2022-07-10T07:36:27;18.10;99.90
61912;DHT22;49973;52.084;5.412;2022-07-10T07:38:55;18.10;99.90
61912;DHT22;49973;52.084;5.412;2022-07-10T07:41:24;18.20;99.90
61912;DHT22;49973;52.084;5.412;2022-07-10T07:43:53;18.30;99.90
61912;DHT22;49973;52.084;5.412;2022-07-10T07:46:21;18.60;99.90
61912;DHT22;49973;52.084;5.412;2022-07-10T07:48:51;18.90;99.90
61912;DHT22;49973;52.084;5.412;2022-07-10T07:51:21;19.20;99.90
61912;DHT22;49973;52.084;5.412;2022-07-10T07:53:49;19.50;99.90
61912;DHT22;49973;52.084;5.412;2022-07-10T07:56:18;19.70;99.90
61912;DHT22;49973;52.084;5.412;2022-07-10T07:58:46;19.70;99.90
61912;DHT22;49973;52.084;5.412;2022-07-10T08:01:15;19.80;99.90
61912;DHT22;49973;52.084;5.412;2022-07-10T08:03:46;19.70;99.90
61912;DHT22;49973;52.084;5.412;2022-07-10T08:06:36;19.60;99.90
61912;DHT22;49973;52.084;5.412;2022-07-10T08:09:05;19.40;99.90
61912;DHT22;49973;52.084;5.412;2022-07-10T08:11:33;19.30;99.90
61912;DHT22;49973;52.084;5.412;2022-07-10T08:14:05;19.10;99.90
61912;DHT22;49973;52.084;5.412;2022-07-10T08:16:33;19.00;99.90
61912;DHT22;49973;52.084;5.412;2022-07-10T08:19:02;18.90;99.90
61912;DHT22;49973;52.084;5.412;2022-07-10T08:21:30;18.70;99.90
61912;DHT22;49973;52.084;5.412;2022-07-10T08:24:00;18.70;99.90
61912;DHT22;49973;52.084;5.412;2022-07-10T08:26:29;18.70;99.90
61912;DHT22;49973;52.084;5.412;2022-07-10T08:28:58;18.70;99.90
61912;DHT22;49973;52.084;5.412;2022-07-10T08:31:26;18.80;99.90
61912;DHT22;49973;52.084;5.412;2022-07-10T08:33:55;18.90;99.90
61912;DHT22;49973;52.084;5.412;2022-07-10T08:36:23;18.90;99.90
61912;DHT22;49973;52.084;5.412;2022-07-10T08:39:13;19.10;99.90
61912;DHT22;49973;52.084;5.412;2022-07-10T08:41:43;19.20;99.90
61912;DHT22;49973;52.084;5.412;2022-07-10T08:44:14;19.20;99.90
61912;DHT22;49973;52.084;5.412;2022-07-10T08:46:42;19.20;99.90
61912;DHT22;49973;52.084;5.412;2022-07-10T08:49:11;19.30;99.90
61912;DHT22;49973;52.084;5.412;2022-07-10T08:51:41;19.30;99.90
61912;DHT22;49973;52.084;5.412;2022-07-10T08:54:14;19.50;99.90
61912;DHT22;49973;52.084;5.412;2022-07-10T08:56:50;19.60;99.90
61912;DHT22;49973;52.084;5.412;2022-07-10T08:59:19;19.80;99.90
61912;DHT22;49973;52.084;5.412;2022-07-10T09:01:54;19.80;99.90
61912;DHT22;49973;52.084;5.412;2022-07-10T09:04:25;20.00;99.90
61912;DHT22;49973;52.084;5.412;2022-07-10T09:06:54;20.10;99.90
61912;DHT22;49973;52.084;5.412;2022-07-10T09:09:25;20.30;99.90
61912;DHT22;49973;52.084;5.412;2022-07-10T09:11:55;20.40;99.90
61912;DHT22;49973;52.084;5.412;2022-07-10T09:14:26;20.50;99.90
61912;DHT22;49973;52.084;5.412;2022-07-10T09:17:02;20.60;99.90
61912;DHT22;49973;52.084;5.412;2022-07-10T09:19:30;20.80;99.90
61912;DHT22;49973;52.084;5.412;2022-07-10T09:22:03;20.80;99.90
61912;DHT22;49973;52.084;5.412;2022-07-10T09:24:36;20.80;99.90
61912;DHT22;49973;52.084;5.412;2022-07-10T09:27:06;20.90;99.90
61912;DHT22;49973;52.084;5.412;2022-07-10T09:29:46;21.00;99.90
61912;DHT22;49973;52.084;5.412;2022-07-10T09:32:16;21.00;99.90
61912;DHT22;49973;52.084;5.412;2022-07-10T09:34:46;21.00;99.90
61912;DHT22;49973;52.084;5.412;2022-07-10T09:37:23;21.00;99.90
61912;DHT22;49973;52.084;5.412;2022-07-10T09:39:56;20.90;99.90
61912;DHT22;49973;52.084;5.412;2022-07-10T09:42:32;20.80;99.90
61912;DHT22;49973;52.084;5.412;2022-07-10T09:45:15;20.90;99.90
61912;DHT22;49973;52.084;5.412;2022-07-10T09:47:46;20.90;99.90
61912;DHT22;49973;52.084;5.412;2022-07-10T09:50:21;21.00;99.90
61912;DHT22;49973;52.084;5.412;2022-07-10T09:52:51;21.00;99.90
61912;DHT22;49973;52.084;5.412;2022-07-10T09:55:24;21.10;99.90
61912;DHT22;49973;52.084;5.412;2022-07-10T09:57:55;21.10;99.90
61912;DHT22;49973;52.084;5.412;2022-07-10T10:00:26;21.20;99.90
61912;DHT22;49973;52.084;5.412;2022-07-10T10:02:56;21.40;99.90
61912;DHT22;49973;52.084;5.412;2022-07-10T10:05:32;21.50;99.90
61912;DHT22;49973;52.084;5.412;2022-07-10T10:08:09;21.60;99.90
61912;DHT22;49973;52.084;5.412;2022-07-10T10:10:44;21.70;99.90
61912;DHT22;49973;52.084;5.412;2022-07-10T10:13:16;21.70;99.90
61912;DHT22;49973;52.084;5.412;2022-07-10T10:15:46;21.70;99.90
61912;DHT22;49973;52.084;5.412;2022-07-10T10:18:17;21.90;99.90
61912;DHT22;49973;52.084;5.412;2022-07-10T10:20:47;22.00;99.90
61912;DHT22;49973;52.084;5.412;2022-07-10T10:23:16;22.30;99.90
61912;DHT22;49973;52.084;5.412;2022-07-10T10:25:51;22.40;99.90
61912;DHT22;49973;52.084;5.412;2022-07-10T10:28:21;22.30;99.90
61912;DHT22;49973;52.084;5.412;2022-07-10T10:30:52;22.30;99.90
61912;DHT22;49973;52.084;5.412;2022-07-10T10:33:40;22.20;99.90
61912;DHT22;49973;52.084;5.412;2022-07-10T10:36:11;22.10;99.90
61912;DHT22;49973;52.084;5.412;2022-07-10T10:39:00;22.00;99.90
61912;DHT22;49973;52.084;5.412;2022-07-10T10:41:36;22.00;99.90
61912;DHT22;49973;52.084;5.412;2022-07-10T10:44:25;22.10;99.90
61912;DHT22;49973;52.084;5.412;2022-07-10T10:46:58;22.20;99.90
61912;DHT22;49973;52.084;5.412;2022-07-10T10:49:55;22.30;99.90
61912;DHT22;49973;52.084;5.412;2022-07-10T10:52:29;22.30;99.90
61912;DHT22;49973;52.084;5.412;2022-07-10T10:55:03;22.30;99.90
61912;DHT22;49973;52.084;5.412;2022-07-10T10:57:38;22.30;99.90
61912;DHT22;49973;52.084;5.412;2022-07-10T11:00:13;22.30;99.90
61912;DHT22;49973;52.084;5.412;2022-07-10T11:02:43;22.30;99.90
61912;DHT22;49973;52.084;5.412;2022-07-10T11:05:40;22.10;99.90
61912;DHT22;49973;52.084;5.412;2022-07-10T11:08:13;21.90;99.90
61912;DHT22;49973;52.084;5.412;2022-07-10T11:10:43;21.80;99.90
61912;DHT22;49973;52.084;5.412;2022-07-10T11:13:17;21.60;99.90
61912;DHT22;49973;52.084;5.412;2022-07-10T11:15:49;21.50;99.90
61912;DHT22;49973;52.084;5.412;2022-07-10T11:18:20;21.40;99.90
61912;DHT22;49973;52.084;5.412;2022-07-10T11:20:52;21.30;99.90
61912;DHT22;49973;52.084;5.412;2022-07-10T11:23:41;21.20;99.90
61912;DHT22;49973;52.084;5.412;2022-07-10T11:26:21;21.10;99.90
61912;DHT22;49973;52.084;5.412;2022-07-10T11:28:52;21.00;99.90
61912;DHT22;49973;52.084;5.412;2022-07-10T11:31:22;21.00;99.90
61912;DHT22;49973;52.084;5.412;2022-07-10T11:33:53;21.00;99.90
61912;DHT22;49973;52.084;5.412;2022-07-10T11:36:23;21.20;99.90
61912;DHT22;49973;52.084;5.412;2022-07-10T11:38:57;21.30;99.90
61912;DHT22;49973;52.084;5.412;2022-07-10T11:41:27;21.50;99.90
61912;DHT22;49973;52.084;5.412;2022-07-10T11:43:58;21.60;99.90
61912;DHT22;49973;52.084;5.412;2022-07-10T11:46:28;21.70;99.90
61912;DHT22;49973;52.084;5.412;2022-07-10T11:48:58;21.90;99.90
61912;DHT22;49973;52.084;5.412;2022-07-10T11:51:29;22.10;99.90
61912;DHT22;49973;52.084;5.412;2022-07-10T11:54:00;22.20;99.90
61912;DHT22;49973;52.084;5.412;2022-07-10T11:56:30;22.20;99.90
61912;DHT22;49973;52.084;5.412;2022-07-10T11:59:02;22.20;99.90
61912;DHT22;49973;52.084;5.412;2022-07-10T12:01:33;22.10;99.90
61912;DHT22;49973;52.084;5.412;2022-07-10T12:04:04;22.00;99.90
61912;DHT22;49973;52.084;5.412;2022-07-10T12:06:34;22.00;99.90
61912;DHT22;49973;52.084;5.412;2022-07-10T12:09:03;22.00;99.90
61912;DHT22;49973;52.084;5.412;2022-07-10T12:11:33;22.20;99.90
61912;DHT22;49973;52.084;5.412;2022-07-10T12:14:11;22.40;99.90
61912;DHT22;49973;52.084;5.412;2022-07-10T12:16:42;22.50;99.90
61912;DHT22;49973;52.084;5.412;2022-07-10T12:19:16;22.70;99.90
61912;DHT22;49973;52.084;5.412;2022-07-10T12:21:46;22.90;99.90
61912;DHT22;49973;52.084;5.412;2022-07-10T12:24:20;23.00;99.90
61912;DHT22;49973;52.084;5.412;2022-07-10T12:26:51;22.90;99.90
61912;DHT22;49973;52.084;5.412;2022-07-10T12:29:23;22.90;99.90
61912;DHT22;49973;52.084;5.412;2022-07-10T12:31:54;22.90;99.90
61912;DHT22;49973;52.084;5.412;2022-07-10T12:34:33;22.90;99.90
61912;DHT22;49973;52.084;5.412;2022-07-10T12:37:07;22.90;99.90
61912;DHT22;49973;52.084;5.412;2022-07-10T12:39:45;22.80;99.90
61912;DHT22;49973;52.084;5.412;2022-07-10T12:42:24;22.80;99.90
61912;DHT22;49973;52.084;5.412;2022-07-10T12:44:54;22.80;99.90
61912;DHT22;49973;52.084;5.412;2022-07-10T12:47:23;22.80;99.90
61912;DHT22;49973;52.084;5.412;2022-07-10T12:49:54;22.90;99.90
61912;DHT22;49973;52.084;5.412;2022-07-10T12:52:27;22.90;99.90
61912;DHT22;49973;52.084;5.412;2022-07-10T12:55:09;23.00;99.90
61912;DHT22;49973;52.084;5.412;2022-07-10T12:57:52;23.20;99.90
61912;DHT22;49973;52.084;5.412;2022-07-10T13:00:23;23.40;99.90
61912;DHT22;49973;52.084;5.412;2022-07-10T13:02:58;23.60;99.90
61912;DHT22;49973;52.084;5.412;2022-07-10T13:05:29;23.60;99.90
61912;DHT22;49973;52.084;5.412;2022-07-10T13:08:18;23.60;99.90
61912;DHT22;49973;52.084;5.412;2022-07-10T13:10:51;23.70;99.90
61912;DHT22;49973;52.084;5.412;2022-07-10T13:13:20;23.90;99.90
61912;DHT22;49973;52.084;5.412;2022-07-10T13:15:50;24.10;99.90
61912;DHT22;49973;52.084;5.412;2022-07-10T13:18:21;24.30;99.90
61912;DHT22;49973;52.084;5.412;2022-07-10T13:20:51;24.40;99.90
61912;DHT22;49973;52.084;5.412;2022-07-10T13:23:27;24.40;99.90
61912;DHT22;49973;52.084;5.412;2022-07-10T13:25:56;24.40;99.90
61912;DHT22;49973;52.084;5.412;2022-07-10T13:28:26;24.40;99.90
61912;DHT22;49973;52.084;5.412;2022-07-10T13:30:56;24.60;99.90
61912;DHT22;49973;52.084;5.412;2022-07-10T13:33:25;24.80;99.90
61912;DHT22;49973;52.084;5.412;2022-07-10T13:35:55;25.10;99.90
61912;DHT22;49973;52.084;5.412;2022-07-10T13:38:23;25.40;99.90
61912;DHT22;49973;52.084;5.412;2022-07-10T13:40:52;25.50;99.90
61912;DHT22;49973;52.084;5.412;2022-07-10T13:43:21;25.60;99.90
61912;DHT22;49973;52.084;5.412;2022-07-10T13:45:57;25.40;99.90
61912;DHT22;49973;52.084;5.412;2022-07-10T13:48:26;25.30;99.90
61912;DHT22;49973;52.084;5.412;2022-07-10T13:50:56;25.20;99.90
61912;DHT22;49973;52.084;5.412;2022-07-10T13:53:24;25.10;99.90
61912;DHT22;49973;52.084;5.412;2022-07-10T13:55:53;25.10;99.90
61912;DHT22;49973;52.084;5.412;2022-07-10T13:58:22;25.20;99.90
61912;DHT22;49973;52.084;5.412;2022-07-10T14:00:51;25.20;99.90
61912;DHT22;49973;52.084;5.412;2022-07-10T14:03:20;25.10;99.90
61912;DHT22;49973;52.084;5.412;2022-07-10T14:05:49;24.90;99.90
61912;DHT22;49973;52.084;5.412;2022-07-10T14:08:17;24.80;99.90
61912;DHT22;49973;52.084;5.412;2022-07-10T14:10:46;24.70;99.90
61912;DHT22;49973;52.084;5.412;2022-07-10T14:13:15;24.60;99.90
61912;DHT22;49973;52.084;5.412;2022-07-10T14:15:43;24.40;99.90
61912;DHT22;49973;52.084;5.412;2022-07-10T14:18:12;24.40;99.90
61912;DHT22;49973;52.084;5.412;2022-07-10T14:21:03;24.30;99.90
61912;DHT22;49973;52.084;5.412;2022-07-10T14:23:32;24.30;99.90
61912;DHT22;49973;52.084;5.412;2022-07-10T14:26:00;24.20;99.90
61912;DHT22;49973;52.084;5.412;2022-07-10T14:28:29;24.10;99.90
61912;DHT22;49973;52.084;5.412;2022-07-10T14:30:58;23.90;99.90
61912;DHT22;49973;52.084;5.412;2022-07-10T14:33:30;23.80;99.90
61912;DHT22;49973;52.084;5.412;2022-07-10T14:35:59;23.70;99.90
61912;DHT22;49973;52.084;5.412;2022-07-10T14:38:29;23.60;99.90
61912;DHT22;49973;52.084;5.412;2022-07-10T14:40:59;23.50;99.90
61912;DHT22;49973;52.084;5.412;2022-07-10T14:43:27;23.50;99.90
61912;DHT22;49973;52.084;5.412;2022-07-10T14:45:59;23.60;99.90
61912;DHT22;49973;52.084;5.412;2022-07-10T14:48:30;23.70;99.90
61912;DHT22;49973;52.084;5.412;2022-07-10T14:51:00;23.80;99.90
61912;DHT22;49973;52.084;5.412;2022-07-10T14:53:30;23.90;99.90
61912;DHT22;49973;52.084;5.412;2022-07-10T14:56:02;23.90;99.90
61912;DHT22;49973;52.084;5.412;2022-07-10T14:58:31;24.00;99.90
61912;DHT22;49973;52.084;5.412;2022-07-10T15:01:19;23.90;99.90
61912;DHT22;49973;52.084;5.412;2022-07-10T15:03:48;23.90;99.90
61912;DHT22;49973;52.084;5.412;2022-07-10T15:06:16;23.90;99.90
61912;DHT22;49973;52.084;5.412;2022-07-10T15:08:46;23.90;99.90
61912;DHT22;49973;52.084;5.412;2022-07-10T15:11:18;23.90;99.90
61912;DHT22;49973;52.084;5.412;2022-07-10T15:13:49;24.00;99.90
61912;DHT22;49973;52.084;5.412;2022-07-10T15:16:25;24.00;99.90
61912;DHT22;49973;52.084;5.412;2022-07-10T15:18:55;24.00;99.90
61912;DHT22;49973;52.084;5.412;2022-07-10T15:21:24;24.00;99.90
61912;DHT22;49973;52.084;5.412;2022-07-10T15:23:54;24.00;99.90
61912;DHT22;49973;52.084;5.412;2022-07-10T15:26:23;24.20;99.90
61912;DHT22;49973;52.084;5.412;2022-07-10T15:28:51;24.20;99.90
61912;DHT22;49973;52.084;5.412;2022-07-10T15:31:20;24.20;99.90
61912;DHT22;49973;52.084;5.412;2022-07-10T15:33:49;24.30;99.90
61912;DHT22;49973;52.084;5.412;2022-07-10T15:36:18;24.30;99.90
61912;DHT22;49973;52.084;5.412;2022-07-10T15:38:48;24.30;99.90
61912;DHT22;49973;52.084;5.412;2022-07-10T15:41:18;24.20;99.90
61912;DHT22;49973;52.084;5.412;2022-07-10T15:43:47;24.00;99.90
61912;DHT22;49973;52.084;5.412;2022-07-10T15:46:15;23.90;99.90
61912;DHT22;49973;52.084;5.412;2022-07-10T15:48:44;23.70;99.90
61912;DHT22;49973;52.084;5.412;2022-07-10T15:51:13;23.70;99.90